Time;durP1;ratioP1;P1;durP2;ratioP2;P2;SDS_P1;SDS_P2;PMS_P1;PMS_P2;Temp;Humidity;BMP_temperature;BMP_pressure;BME280_temperature;BME280_humidity;BME280_pressure;Samples;Min_cycle;Max_cycle;Signal;HPM_P1;HPM_P2
2023/01/28 00:01:48;;;;;;;38.33;22.70;;;;;;;;;;5013811;28;20033;-71
2023/01/28 00:04:14;;;;;;;39.42;21.55;;;;;;;;;;5014330;28;20053;-70
2023/01/28 00:06:39;;;;;;;35.38;20.70;;;;;;;;;;5014220;28;20034;-71
2023/01/28 00:09:06;;;;;;;33.00;18.67;;;;;;;;;;5029636;28;20040;-71
2023/01/28 00:11:32;;;;;;;34.80;19.30;;;;;;;;;;5013777;28;20071;-72
2023/01/28 00:13:58;;;;;;;40.17;18.52;;;;;;;;;;5013873;28;20044;-72
2023/01/28 00:16:27;;;;;;;39.58;20.02;;;;;;;;;;5014223;28;20030;-73
2023/01/28 00:18:53;;;;;;;36.15;18.20;;;;;;;;;;5013111;28;20026;-72
2023/01/28 00:21:19;;;;;;;36.08;19.60;;;;;;;;;;5013764;28;20108;-72
2023/01/28 00:23:51;;;;;;;60.72;22.80;;;;;;;;;;5013690;28;20117;-72
2023/01/28 00:26:17;;;;;;;36.10;19.50;;;;;;;;;;5013805;28;20180;-71
2023/01/28 00:28:44;;;;;;;41.67;22.65;;;;;;;;;;5014219;28;20112;-72
2023/01/28 00:31:19;;;;;;;40.47;20.33;;;;;;;;;;5029220;28;20508;-72
2023/01/28 00:33:47;;;;;;;39.75;20.92;;;;;;;;;;5028996;28;20022;-71
2023/01/28 00:36:15;;;;;;;37.95;21.15;;;;;;;;;;5012427;28;20475;-71
2023/01/28 00:38:41;;;;;;;36.53;20.55;;;;;;;;;;5014006;28;20506;-72
2023/01/28 00:41:14;;;;;;;35.38;19.60;;;;;;;;;;5014236;28;20633;-71
2023/01/28 00:43:41;;;;;;;32.30;18.80;;;;;;;;;;5011979;28;20038;-71
2023/01/28 00:46:09;;;;;;;33.65;18.55;;;;;;;;;;5014167;28;20124;-71
2023/01/28 00:48:36;;;;;;;35.20;18.77;;;;;;;;;;5013783;28;20030;-71
2023/01/28 00:51:03;;;;;;;33.72;18.02;;;;;;;;;;5013619;28;20431;-71
2023/01/28 00:53:30;;;;;;;34.03;18.40;;;;;;;;;;5012625;28;20033;-71
2023/01/28 00:55:56;;;;;;;36.28;19.77;;;;;;;;;;4995901;28;20034;-71
2023/01/28 00:58:23;;;;;;;30.10;17.10;;;;;;;;;;5013457;28;20156;-70
2023/01/28 01:00:50;;;;;;;29.65;17.10;;;;;;;;;;5042497;28;20048;-71
2023/01/28 01:03:17;;;;;;;29.17;17.30;;;;;;;;;;5011232;28;20072;-71
2023/01/28 01:05:43;;;;;;;29.60;15.65;;;;;;;;;;5013081;28;20037;-71
2023/01/28 01:08:09;;;;;;;31.02;16.00;;;;;;;;;;5011620;28;20064;-71
2023/01/28 01:10:37;;;;;;;26.85;15.82;;;;;;;;;;5028306;28;20406;-71
2023/01/28 01:13:04;;;;;;;27.95;16.00;;;;;;;;;;5011592;28;20030;-71
2023/01/28 01:15:29;;;;;;;23.65;14.60;;;;;;;;;;5028534;28;20117;-71
2023/01/28 01:17:56;;;;;;;25.98;14.32;;;;;;;;;;5011758;28;20122;-71
2023/01/28 01:20:25;;;;;;;25.58;14.07;;;;;;;;;;5011704;28;20065;-71
2023/01/28 01:22:51;;;;;;;23.88;14.27;;;;;;;;;;5027947;28;20052;-71
2023/01/28 01:25:18;;;;;;;21.75;12.82;;;;;;;;;;5013076;28;20415;-71
2023/01/28 01:27:47;;;;;;;19.58;12.93;;;;;;;;;;5011626;28;20037;-71
2023/01/28 01:30:14;;;;;;;20.13;12.02;;;;;;;;;;5012748;28;20030;-71
2023/01/28 01:32:39;;;;;;;20.77;12.15;;;;;;;;;;5011089;28;20022;-70
2023/01/28 01:35:07;;;;;;;20.92;11.73;;;;;;;;;;5012506;28;20029;-70
2023/01/28 01:37:33;;;;;;;21.77;12.73;;;;;;;;;;5011532;28;20034;-71
2023/01/28 01:40:03;;;;;;;23.38;13.05;;;;;;;;;;5027802;28;20033;-71
2023/01/28 01:42:32;;;;;;;18.63;11.77;;;;;;;;;;5010831;28;20042;-71
2023/01/28 01:44:58;;;;;;;19.08;11.45;;;;;;;;;;5012775;28;20364;-71
2023/01/28 01:48:07;;;;;;;26.40;12.75;;;;;;;;;;5024480;28;20045;-70
2023/01/28 01:50:36;;;;;;;23.92;13.55;;;;;;;;;;4987360;28;20057;-71
2023/01/28 01:53:10;;;;;;;26.70;13.32;;;;;;;;;;5014087;28;20026;-70
2023/01/28 01:55:40;;;;;;;18.38;10.73;;;;;;;;;;5003874;28;20438;-70
2023/01/28 01:58:08;;;;;;;19.35;11.85;;;;;;;;;;5021900;28;20081;-70
2023/01/28 02:00:34;;;;;;;21.77;12.25;;;;;;;;;;5026820;28;20160;-71
2023/01/28 02:03:00;;;;;;;21.88;11.77;;;;;;;;;;5027163;28;20480;-71
2023/01/28 02:05:26;;;;;;;19.52;11.95;;;;;;;;;;5010481;28;20033;-71
2023/01/28 02:08:19;;;;;;;21.50;11.18;;;;;;;;;;4994513;28;20037;-71
2023/01/28 02:10:44;;;;;;;19.70;11.52;;;;;;;;;;5010696;28;20068;-71
2023/01/28 02:13:10;;;;;;;20.65;11.00;;;;;;;;;;5011822;28;20029;-71
2023/01/28 02:15:36;;;;;;;18.13;10.02;;;;;;;;;;5012213;28;20029;-71
2023/01/28 02:18:02;;;;;;;16.98;9.95;;;;;;;;;;5027330;28;20022;-71
2023/01/28 02:20:49;;;;;;;21.33;10.95;;;;;;;;;;5012201;28;20456;-71
2023/01/28 02:23:39;;;;;;;17.83;11.05;;;;;;;;;;5026609;28;20038;-71
2023/01/28 02:26:59;;;;;;;18.27;11.23;;;;;;;;;;5027227;28;20120;-71
2023/01/28 02:29:47;;;;;;;19.13;11.00;;;;;;;;;;4954304;28;20070;-71
2023/01/28 02:32:15;;;;;;;20.15;11.48;;;;;;;;;;5010991;28;20512;-71
2023/01/28 02:34:50;;;;;;;20.30;10.80;;;;;;;;;;5010954;28;20053;-71
2023/01/28 02:37:32;;;;;;;17.45;9.90;;;;;;;;;;5026495;28;20505;-70
2023/01/28 02:40:01;;;;;;;17.77;10.55;;;;;;;;;;5023644;28;20121;-70
2023/01/28 02:42:32;;;;;;;17.33;10.73;;;;;;;;;;5025911;28;20048;-71
2023/01/28 02:44:58;;;;;;;18.45;10.95;;;;;;;;;;5027224;28;20061;-71
2023/01/28 02:50:37;;;;;;;19.85;11.40;;;;;;;;;;4990109;28;20044;-70
2023/01/28 02:53:42;;;;;;;16.92;9.90;;;;;;;;;;5000640;28;20253;-71
2023/01/28 02:56:28;;;;;;;17.30;8.73;;;;;;;;;;5004037;28;20037;-71
2023/01/28 02:59:32;;;;;;;17.10;9.63;;;;;;;;;;5021749;28;20269;-72
2023/01/28 03:02:08;;;;;;;21.63;9.55;;;;;;;;;;5012427;28;20038;-71
2023/01/28 03:05:01;;;;;;;17.90;9.35;;;;;;;;;;5006678;28;20030;-71
2023/01/28 03:07:30;;;;;;;14.75;8.43;;;;;;;;;;4996862;28;20178;-71
2023/01/28 03:10:03;;;;;;;15.48;8.43;;;;;;;;;;5023111;28;20498;-71
2023/01/28 03:38:32;;;;;;;21.83;12.75;;;;;;;;;;5023926;28;20029;-72
2023/01/28 03:41:01;;;;;;;18.10;10.63;;;;;;;;;;5022869;28;20037;-71
2023/01/28 03:43:29;;;;;;;34.45;12.15;;;;;;;;;;5023673;28;20056;-71
2023/01/28 03:45:56;;;;;;;27.15;11.38;;;;;;;;;;5008979;28;20029;-71
2023/01/28 03:48:24;;;;;;;24.95;12.23;;;;;;;;;;5009200;28;20410;-71
2023/01/28 03:50:51;;;;;;;23.65;11.60;;;;;;;;;;5009641;28;20088;-71
2023/01/28 03:53:18;;;;;;;21.88;10.73;;;;;;;;;;5026205;28;20010;-71
2023/01/28 03:55:47;;;;;;;18.63;10.20;;;;;;;;;;5039681;28;20056;-71
2023/01/28 03:58:14;;;;;;;19.90;10.27;;;;;;;;;;5045436;28;20038;-71
2023/01/28 04:00:41;;;;;;;18.58;10.38;;;;;;;;;;5012949;28;20502;-71
2023/01/28 04:03:17;;;;;;;18.02;10.40;;;;;;;;;;4993794;28;20062;-70
2023/01/28 04:06:01;;;;;;;18.23;10.48;;;;;;;;;;4993281;28;20395;-70
2023/01/28 04:08:51;;;;;;;19.33;11.40;;;;;;;;;;5007397;28;20060;-70
2023/01/28 04:11:43;;;;;;;22.73;11.20;;;;;;;;;;4993100;28;20066;-71
2023/01/28 04:14:14;;;;;;;27.30;14.10;;;;;;;;;;4996801;28;20176;-71
2023/01/28 04:16:47;;;;;;;28.67;15.45;;;;;;;;;;5012805;28;20129;-71
2023/01/28 04:19:14;;;;;;;25.02;14.90;;;;;;;;;;5011357;28;20030;-71
2023/01/28 04:21:41;;;;;;;28.00;13.48;;;;;;;;;;5011767;28;20030;-71
2023/01/28 04:24:07;;;;;;;19.65;10.52;;;;;;;;;;5010515;28;20045;-71
2023/01/28 04:26:33;;;;;;;17.58;9.90;;;;;;;;;;4994498;28;20034;-71
2023/01/28 04:28:59;;;;;;;19.88;10.40;;;;;;;;;;5009272;28;20381;-71
2023/01/28 04:31:25;;;;;;;16.58;9.35;;;;;;;;;;4992777;28;20038;-70
2023/01/28 04:33:57;;;;;;;18.15;10.75;;;;;;;;;;5009594;28;20439;-70
2023/01/28 04:36:43;;;;;;;20.98;10.82;;;;;;;;;;4997155;28;20450;-71
2023/01/28 04:39:49;;;;;;;;;;;;;;;;;;4989490;28;20042;-71
2023/01/28 04:42:18;;;;;;;16.77;10.18;;;;;;;;;;4989955;28;19918;-72
2023/01/28 04:45:10;;;;;;;17.75;10.23;;;;;;;;;;5018257;28;20479;-70
2023/01/28 04:47:46;;;;;;;22.70;11.55;;;;;;;;;;5031603;28;20033;-70
2023/01/28 04:50:31;;;;;;;27.52;12.07;;;;;;;;;;5032238;28;20057;-71
2023/01/28 04:53:06;;;;;;;34.33;13.00;;;;;;;;;;5049007;28;20040;-70
2023/01/28 04:55:49;;;;;;;33.20;12.10;;;;;;;;;;5032362;28;20033;-70
2023/01/28 04:58:15;;;;;;;32.67;13.65;;;;;;;;;;5032081;28;20512;-70
2023/01/28 05:00:43;;;;;;;30.17;13.57;;;;;;;;;;5015830;28;20026;-70
2023/01/28 05:03:08;;;;;;;22.65;11.27;;;;;;;;;;5048522;28;20052;-70
2023/01/28 05:05:34;;;;;;;18.38;10.60;;;;;;;;;;5031938;28;20044;-70
2023/01/28 05:08:16;;;;;;;20.27;11.10;;;;;;;;;;5031935;28;20040;-70
2023/01/28 05:10:43;;;;;;;20.00;11.63;;;;;;;;;;5048610;28;20033;-70
2023/01/28 05:13:09;;;;;;;17.52;10.52;;;;;;;;;;5033016;28;20046;-70
2023/01/28 05:15:35;;;;;;;19.65;11.23;;;;;;;;;;5033167;28;20061;-70
2023/01/28 05:18:01;;;;;;;18.70;10.07;;;;;;;;;;5032288;28;20083;-71
2023/01/28 05:20:32;;;;;;;33.90;13.50;;;;;;;;;;5048406;28;20037;-70
2023/01/28 05:23:02;;;;;;;20.25;11.20;;;;;;;;;;5015627;28;20062;-70
2023/01/28 05:25:38;;;;;;;18.67;11.68;;;;;;;;;;5031585;28;20048;-71
2023/01/28 05:28:05;;;;;;;22.75;12.32;;;;;;;;;;5032735;28;20486;-71
2023/01/28 05:30:31;;;;;;;23.90;11.68;;;;;;;;;;5031101;28;20104;-71
2023/01/28 05:32:57;;;;;;;25.63;13.32;;;;;;;;;;5031392;28;20087;-70
2023/01/28 05:35:23;;;;;;;21.52;11.75;;;;;;;;;;5014686;28;20032;-71
2023/01/28 05:37:50;;;;;;;22.30;11.98;;;;;;;;;;5028095;28;20034;-71
2023/01/28 05:40:17;;;;;;;24.92;13.25;;;;;;;;;;5011556;28;20080;-71
2023/01/28 05:42:43;;;;;;;18.88;11.77;;;;;;;;;;5011187;28;20029;-71
2023/01/28 05:45:21;;;;;;;21.23;12.50;;;;;;;;;;5027706;28;20018;-71
2023/01/28 05:48:06;;;;;;;20.70;12.40;;;;;;;;;;5012536;28;20115;-71
2023/01/28 05:50:55;;;;;;;24.52;12.38;;;;;;;;;;5007935;28;20352;-71
2023/01/28 05:53:30;;;;;;;21.70;11.50;;;;;;;;;;5007077;28;20039;-71
2023/01/28 05:55:57;;;;;;;27.35;13.18;;;;;;;;;;5024780;28;20042;-71
2023/01/28 05:58:23;;;;;;;28.13;12.48;;;;;;;;;;5012148;28;20437;-71
2023/01/28 06:00:49;;;;;;;21.60;13.10;;;;;;;;;;5010388;28;20030;-71
2023/01/28 06:03:19;;;;;;;23.48;12.82;;;;;;;;;;5027183;28;20488;-71
2023/01/28 06:05:46;;;;;;;20.95;13.45;;;;;;;;;;5011093;28;20494;-71
2023/01/28 06:08:12;;;;;;;24.98;14.25;;;;;;;;;;5027476;28;20053;-71
2023/01/28 06:10:38;;;;;;;27.80;13.77;;;;;;;;;;5027594;28;20438;-71
2023/01/28 06:13:03;;;;;;;29.40;14.13;;;;;;;;;;5012207;28;20382;-71
2023/01/28 06:15:58;;;;;;;36.83;14.13;;;;;;;;;;4993145;28;20121;-71
2023/01/28 06:18:36;;;;;;;33.72;14.27;;;;;;;;;;5027250;28;20125;-72
2023/01/28 06:21:02;;;;;;;33.58;15.70;;;;;;;;;;5011848;28;20116;-71
2023/01/28 06:23:27;;;;;;;45.78;18.48;;;;;;;;;;5027140;28;20026;-71
2023/01/28 06:25:55;;;;;;;33.25;17.63;;;;;;;;;;5010885;28;20564;-71
2023/01/28 06:28:22;;;;;;;25.70;13.55;;;;;;;;;;5010974;28;20090;-71
2023/01/28 06:30:49;;;;;;;20.92;12.20;;;;;;;;;;5011446;28;20045;-71
2023/01/28 06:33:14;;;;;;;25.88;14.45;;;;;;;;;;5011248;28;20116;-71
2023/01/28 06:35:41;;;;;;;25.67;14.13;;;;;;;;;;5003880;28;20104;-71
2023/01/28 06:38:07;;;;;;;29.83;15.07;;;;;;;;;;5011533;28;20108;-72
2023/01/28 06:40:33;;;;;;;20.02;11.98;;;;;;;;;;5011437;28;20113;-71
2023/01/28 06:42:58;;;;;;;32.17;19.63;;;;;;;;;;5014248;28;20037;-70
2023/01/28 06:45:25;;;;;;;33.63;20.02;;;;;;;;;;5014958;28;20091;-71
2023/01/28 06:47:50;;;;;;;31.35;19.17;;;;;;;;;;5015656;28;20033;-71
2023/01/28 06:50:16;;;;;;;38.72;16.88;;;;;;;;;;5006203;28;20034;-70
2023/01/28 06:52:42;;;;;;;29.45;16.50;;;;;;;;;;4995797;28;20014;-71
2023/01/28 06:55:08;;;;;;;24.98;16.52;;;;;;;;;;4999729;28;20407;-71
2023/01/28 06:57:37;;;;;;;26.67;15.02;;;;;;;;;;5015696;28;20026;-71
2023/01/28 07:00:03;;;;;;;24.27;14.48;;;;;;;;;;5030282;28;20491;-71
2023/01/28 07:02:30;;;;;;;28.63;11.45;;;;;;;;;;5014873;28;20083;-71
2023/01/28 07:04:56;;;;;;;21.23;11.35;;;;;;;;;;5015170;28;20029;-71
2023/01/28 07:07:21;;;;;;;20.40;11.07;;;;;;;;;;5005071;28;20133;-71
2023/01/28 07:09:47;;;;;;;22.38;12.60;;;;;;;;;;4995876;28;20057;-71
2023/01/28 07:12:13;;;;;;;19.13;10.77;;;;;;;;;;5010946;28;20089;-71
2023/01/28 07:14:38;;;;;;;19.63;11.23;;;;;;;;;;5012764;28;20030;-71
2023/01/28 07:17:04;;;;;;;28.33;11.77;;;;;;;;;;5015133;28;20360;-72
2023/01/28 07:19:30;;;;;;;20.30;11.68;;;;;;;;;;5013831;28;20483;-71
2023/01/28 07:21:59;;;;;;;20.40;12.18;;;;;;;;;;5014966;28;20079;-71
2023/01/28 07:24:25;;;;;;;32.33;14.63;;;;;;;;;;5012128;28;20038;-72
2023/01/28 07:26:51;;;;;;;23.52;13.73;;;;;;;;;;5014115;28;20510;-71
2023/01/28 07:29:17;;;;;;;21.10;13.15;;;;;;;;;;5014209;28;20042;-71
2023/01/28 07:31:42;;;;;;;26.38;13.98;;;;;;;;;;5009009;28;20027;-71
2023/01/28 07:34:08;;;;;;;23.88;13.77;;;;;;;;;;5010727;28;20038;-72
2023/01/28 07:36:34;;;;;;;22.10;12.88;;;;;;;;;;5014933;28;20476;-72
2023/01/28 07:39:00;;;;;;;22.42;13.43;;;;;;;;;;5014355;28;20064;-72
2023/01/28 07:41:26;;;;;;;21.52;12.27;;;;;;;;;;5011233;28;20057;-72
2023/01/28 07:43:52;;;;;;;19.35;12.38;;;;;;;;;;5008850;28;20030;-72
2023/01/28 07:46:18;;;;;;;23.42;12.75;;;;;;;;;;5014250;28;20036;-73
2023/01/28 07:48:44;;;;;;;22.15;12.30;;;;;;;;;;4996266;28;20128;-72
2023/01/28 07:51:10;;;;;;;18.25;11.07;;;;;;;;;;5013924;28;20029;-72
2023/01/28 07:53:38;;;;;;;18.67;11.80;;;;;;;;;;5004984;28;20125;-73
2023/01/28 07:56:05;;;;;;;23.75;13.00;;;;;;;;;;5017596;28;20033;-72
2023/01/28 07:58:34;;;;;;;16.17;10.50;;;;;;;;;;5013334;28;20115;-72
2023/01/28 08:01:01;;;;;;;20.98;11.73;;;;;;;;;;4998501;28;20037;-72
2023/01/28 08:03:27;;;;;;;17.60;10.68;;;;;;;;;;5027575;28;20033;-72
2023/01/28 08:05:55;;;;;;;17.55;10.63;;;;;;;;;;5016056;28;20026;-73
2023/01/28 08:08:26;;;;;;;18.35;10.88;;;;;;;;;;5004879;28;20041;-72
2023/01/28 08:10:52;;;;;;;24.95;10.50;;;;;;;;;;5012811;28;20057;-73
2023/01/28 08:13:18;;;;;;;21.60;11.85;;;;;;;;;;5026319;28;20026;-73
2023/01/28 08:15:45;;;;;;;19.17;11.68;;;;;;;;;;5013701;28;20168;-73
2023/01/28 08:18:13;;;;;;;16.45;10.73;;;;;;;;;;5013000;28;20112;-72
2023/01/28 08:20:40;;;;;;;19.48;12.57;;;;;;;;;;5017232;28;20098;-72
2023/01/28 08:23:10;;;;;;;21.75;12.32;;;;;;;;;;5005136;28;20050;-73
2023/01/28 08:25:37;;;;;;;25.30;12.70;;;;;;;;;;5005775;28;20049;-73
2023/01/28 08:28:03;;;;;;;22.23;12.63;;;;;;;;;;5005827;28;20444;-73
2023/01/28 08:30:29;;;;;;;24.05;13.00;;;;;;;;;;5006152;28;20045;-73
2023/01/28 08:32:57;;;;;;;42.83;15.50;;;;;;;;;;5011633;28;20422;-74
2023/01/28 08:35:24;;;;;;;19.13;12.98;;;;;;;;;;5011733;28;20069;-73
2023/01/28 08:37:50;;;;;;;25.83;13.77;;;;;;;;;;5004982;28;20041;-74
2023/01/28 08:40:16;;;;;;;18.90;11.65;;;;;;;;;;5012541;28;20037;-74
2023/01/28 08:42:52;;;;;;;21.20;12.70;;;;;;;;;;5007805;28;20022;-74
2023/01/28 08:45:24;;;;;;;15.70;10.70;;;;;;;;;;5008185;28;20080;-73
2023/01/28 08:47:57;;;;;;;17.55;10.90;;;;;;;;;;5007124;28;20058;-75
2023/01/28 08:50:24;;;;;;;;;;;;;;;;;;5004787;28;20038;-72
2023/01/28 08:52:55;;;;;;;16.75;11.40;;;;;;;;;;5012532;28;19914;-72
2023/01/28 08:55:21;;;;;;;25.27;12.38;;;;;;;;;;5008942;28;20042;-73
2023/01/28 08:57:47;;;;;;;20.98;11.48;;;;;;;;;;4988815;28;20045;-73
2023/01/28 09:00:13;;;;;;;23.00;12.35;;;;;;;;;;5012771;28;20041;-73
2023/01/28 09:02:39;;;;;;;20.50;12.70;;;;;;;;;;5003982;28;21699;-72
2023/01/28 09:05:05;;;;;;;25.30;13.57;;;;;;;;;;5010005;28;20037;-71
2023/01/28 09:17:26;;;;;;;29.02;16.95;;;;;;;;;;5023394;23;20380;-82
2023/01/28 09:19:52;;;;;;;26.83;17.65;;;;;;;;;;4976600;28;20062;-83
2023/01/28 09:22:19;;;;;;;33.83;18.00;;;;;;;;;;4966249;28;20051;-80
2023/01/28 09:24:45;;;;;;;31.35;19.40;;;;;;;;;;4962303;28;20035;-81
2023/01/28 09:27:12;;;;;;;30.95;18.08;;;;;;;;;;4961130;28;20554;-80
2023/01/28 09:29:40;;;;;;;29.52;17.15;;;;;;;;;;4973131;28;20046;-83
2023/01/28 09:32:06;;;;;;;40.20;17.85;;;;;;;;;;4956333;28;20027;-82
2023/01/28 09:34:32;;;;;;;26.45;17.27;;;;;;;;;;4973574;28;20038;-82
2023/01/28 09:36:58;;;;;;;30.17;16.60;;;;;;;;;;4972736;28;20089;-83
2023/01/28 09:39:27;;;;;;;19.35;13.13;;;;;;;;;;4973190;28;20045;-81
2023/01/28 09:42:15;;;;;;;23.48;13.90;;;;;;;;;;4973254;28;20026;-82
2023/01/28 09:45:12;;;;;;;21.83;14.15;;;;;;;;;;4955861;28;20433;-80
2023/01/28 09:47:51;;;;;;;19.90;12.63;;;;;;;;;;4973223;28;20035;-82
2023/01/28 09:50:27;;;;;;;23.90;14.07;;;;;;;;;;4973166;28;20039;-81
2023/01/28 09:52:56;;;;;;;27.45;14.02;;;;;;;;;;4972756;28;20131;-82
2023/01/28 09:55:36;;;;;;;20.15;12.50;;;;;;;;;;4955817;28;20109;-82
2023/01/28 09:58:06;;;;;;;17.90;11.07;;;;;;;;;;4973445;28;20460;-80
2023/01/28 10:00:36;;;;;;;18.20;11.60;;;;;;;;;;4971538;28;20035;-81
2023/01/28 10:03:22;;;;;;;17.65;10.32;;;;;;;;;;4964313;28;20039;-81
2023/01/28 10:06:27;;;;;;;16.10;10.40;;;;;;;;;;4965857;28;20050;-82
2023/01/28 10:09:18;;;;;;;16.70;10.43;;;;;;;;;;4966240;28;20488;-82
2023/01/28 10:11:50;;;;;;;24.80;10.25;;;;;;;;;;4973294;28;20046;-81
2023/01/28 10:14:31;;;;;;;13.70;9.10;;;;;;;;;;4975025;28;20193;-81
2023/01/28 10:17:19;;;;;;;14.15;9.35;;;;;;;;;;4951795;28;20054;-83
2023/01/28 10:20:05;;;;;;;15.13;9.80;;;;;;;;;;4965767;28;20038;-82
2023/01/28 10:22:42;;;;;;;15.55;9.90;;;;;;;;;;4972948;28;20503;-82
2023/01/28 10:25:18;;;;;;;21.45;11.05;;;;;;;;;;4975869;28;20057;-81
2023/01/28 10:27:51;;;;;;;16.88;9.60;;;;;;;;;;4973168;28;20122;-81
2023/01/28 10:30:25;;;;;;;12.90;8.73;;;;;;;;;;4971506;28;20039;-82
2023/01/28 10:32:52;;;;;;;17.77;9.40;;;;;;;;;;4971712;28;20085;-81
2023/01/28 10:35:20;;;;;;;15.23;9.70;;;;;;;;;;4955809;28;20097;-82
2023/01/28 10:37:46;;;;;;;14.05;9.27;;;;;;;;;;4936168;29;20047;-81
2023/01/28 10:40:16;;;;;;;15.43;9.18;;;;;;;;;;4952140;28;20027;-81
2023/01/28 10:42:43;;;;;;;19.92;9.63;;;;;;;;;;4971828;28;20546;-81
2023/01/28 10:45:33;;;;;;;15.23;8.90;;;;;;;;;;4972464;28;20031;-82
2023/01/28 10:48:08;;;;;;;13.75;9.32;;;;;;;;;;4972605;28;20148;-80
2023/01/28 10:50:34;;;;;;;14.10;9.40;;;;;;;;;;4972416;28;20122;-82
2023/01/28 10:53:03;;;;;;;16.63;9.07;;;;;;;;;;4972488;28;20468;-80
2023/01/28 10:55:32;;;;;;;12.50;8.30;;;;;;;;;;4969530;28;20042;-81
2023/01/28 10:57:58;;;;;;;10.88;7.43;;;;;;;;;;4952898;28;20058;-81
2023/01/28 11:00:32;;;;;;;17.48;11.20;;;;;;;;;;4952734;28;20062;-81
2023/01/28 11:02:58;;;;;;;15.65;8.90;;;;;;;;;;4953054;28;20031;-81
2023/01/28 11:05:30;;;;;;;13.57;8.85;;;;;;;;;;4953205;28;20114;-81
2023/01/28 11:08:04;;;;;;;14.50;8.85;;;;;;;;;;4920037;29;20460;-81
2023/01/28 11:10:33;;;;;;;18.50;8.50;;;;;;;;;;4951364;28;20073;-82
2023/01/28 11:13:00;;;;;;;13.13;8.23;;;;;;;;;;4953757;28;20436;-82
2023/01/28 11:15:28;;;;;;;17.58;9.27;;;;;;;;;;4946654;28;20472;-80
2023/01/28 11:17:58;;;;;;;15.38;8.98;;;;;;;;;;4954343;28;20037;-82
2023/01/28 11:20:26;;;;;;;15.95;9.35;;;;;;;;;;4972907;28;20050;-82
2023/01/28 11:22:54;;;;;;;14.40;9.30;;;;;;;;;;4972451;28;20149;-82
2023/01/28 11:25:37;;;;;;;15.65;9.95;;;;;;;;;;4971993;28;20058;-81
2023/01/28 11:28:20;;;;;;;15.02;8.63;;;;;;;;;;4966466;28;20466;-81
2023/01/28 11:30:52;;;;;;;11.57;8.07;;;;;;;;;;4976668;28;20047;-81
2023/01/28 11:33:28;;;;;;;26.05;11.10;;;;;;;;;;4977136;28;20031;-82
2023/01/28 11:36:06;;;;;;;16.65;9.80;;;;;;;;;;4945487;28;20104;-82
2023/01/28 11:38:32;;;;;;;21.10;9.82;;;;;;;;;;4959530;28;20031;-82
2023/01/28 11:41:00;;;;;;;18.67;10.13;;;;;;;;;;4977128;28;20027;-82
2023/01/28 11:43:31;;;;;;;15.85;9.77;;;;;;;;;;4976040;28;20065;-82
2023/01/28 11:46:19;;;;;;;14.52;9.52;;;;;;;;;;4971944;28;20035;-82
2023/01/28 11:48:58;;;;;;;19.65;10.40;;;;;;;;;;4956413;28;20059;-84
2023/01/28 11:51:54;;;;;;;16.88;9.32;;;;;;;;;;4973349;28;20042;-82
2023/01/28 11:54:33;;;;;;;18.30;9.93;;;;;;;;;;4958340;28;20051;-80
2023/01/28 11:57:21;;;;;;;17.23;9.88;;;;;;;;;;4958580;28;20089;-82
2023/01/28 11:59:59;;;;;;;17.45;9.35;;;;;;;;;;4968015;28;20586;-81
2023/01/28 12:02:50;;;;;;;14.98;9.75;;;;;;;;;;4977611;28;20082;-82
2023/01/28 12:05:33;;;;;;;16.23;9.25;;;;;;;;;;4975246;28;20051;-82
2023/01/28 12:08:18;;;;;;;21.42;9.82;;;;;;;;;;4975413;28;20460;-80
2023/01/28 12:11:17;;;;;;;17.23;8.77;;;;;;;;;;4966988;28;20050;-82
2023/01/28 12:14:02;;;;;;;15.07;9.38;;;;;;;;;;4975647;28;20089;-81
2023/01/28 12:16:39;;;;;;;17.42;9.82;;;;;;;;;;4975550;28;20034;-82
2023/01/28 12:19:20;;;;;;;15.85;10.05;;;;;;;;;;4975861;28;20045;-82
2023/01/28 12:22:11;;;;;;;16.13;9.27;;;;;;;;;;4975211;28;20079;-83
2023/01/28 12:24:49;;;;;;;15.77;8.82;;;;;;;;;;4956508;28;20089;-82
2023/01/28 12:27:37;;;;;;;14.98;8.90;;;;;;;;;;4974260;28;20400;-82
2023/01/28 12:30:06;;;;;;;21.33;9.07;;;;;;;;;;4959169;28;20403;-82
2023/01/28 12:32:57;;;;;;;18.52;9.10;;;;;;;;;;4957581;28;20054;-82
2023/01/28 12:35:50;;;;;;;13.60;9.18;;;;;;;;;;4973452;28;20315;-81
2023/01/28 12:38:24;;;;;;;15.18;8.80;;;;;;;;;;4975318;28;20255;-81
2023/01/28 12:41:06;;;;;;;14.75;8.95;;;;;;;;;;4974395;28;20042;-81
2023/01/28 12:43:41;;;;;;;12.35;7.90;;;;;;;;;;4956756;28;20027;-82
2023/01/28 12:46:30;;;;;;;17.17;9.05;;;;;;;;;;4954469;28;20134;-82
2023/01/28 12:49:09;;;;;;;20.08;10.38;;;;;;;;;;4946547;28;20070;-81
2023/01/28 12:51:51;;;;;;;25.55;10.57;;;;;;;;;;4938629;28;20039;-80
2023/01/28 12:54:28;;;;;;;18.90;9.73;;;;;;;;;;4938546;29;20030;-82
2023/01/28 12:56:55;;;;;;;14.20;8.60;;;;;;;;;;4938543;29;20036;-82
2023/01/28 12:59:30;;;;;;;15.25;9.15;;;;;;;;;;4938160;28;20023;-82
2023/01/28 13:02:04;;;;;;;15.27;9.48;;;;;;;;;;4968616;28;20050;-81
2023/01/28 13:04:33;;;;;;;;;;;;;;;;;;4965843;28;20070;-81
2023/01/28 13:07:07;;;;;;;14.25;9.27;;;;;;;;;;4955622;28;19915;-83
2023/01/28 13:09:34;;;;;;;;;;;;;;;;;;4964791;28;20057;-82
2023/01/28 13:12:01;;;;;;;23.00;9.50;;;;;;;;;;4975557;28;19939;-83
2023/01/28 13:14:31;;;;;;;19.77;9.73;;;;;;;;;;4963867;28;20133;-83
2023/01/28 13:17:11;;;;;;;15.93;8.68;;;;;;;;;;4957840;28;20035;-83
2023/01/28 13:19:41;;;;;;;13.70;9.25;;;;;;;;;;4975114;28;20081;-86
2023/01/28 13:22:25;;;;;;;21.27;10.20;;;;;;;;;;4975059;28;20019;-84
2023/01/28 13:24:51;;;;;;;14.88;9.45;;;;;;;;;;4974680;28;20109;-77
2023/01/28 13:27:28;;;;;;;23.63;10.70;;;;;;;;;;4976146;28;20030;-84
2023/01/28 13:30:20;;;;;;;18.92;10.75;;;;;;;;;;4947404;29;20027;-86
2023/01/28 13:32:58;;;;;;;18.90;10.70;;;;;;;;;;4967282;28;20054;-86
2023/01/28 13:35:38;;;;;;;19.98;11.25;;;;;;;;;;4974331;28;20035;-85
2023/01/28 13:38:23;;;;;;;16.77;10.52;;;;;;;;;;4974060;28;20484;-83
2023/01/28 13:41:00;;;;;;;12.43;8.85;;;;;;;;;;4974541;28;20058;-84
2023/01/28 13:43:31;;;;;;;11.60;8.00;;;;;;;;;;4974832;28;20166;-85
2023/01/28 13:46:21;;;;;;;22.67;10.15;;;;;;;;;;4973372;28;20038;-86
2023/01/28 13:48:54;;;;;;;19.15;8.98;;;;;;;;;;4981384;28;20459;-86
2023/01/28 13:51:25;;;;;;;12.35;8.60;;;;;;;;;;4974047;28;20051;-86
2023/01/28 13:54:06;;;;;;;22.20;9.57;;;;;;;;;;4976476;28;20089;-85
2023/01/28 13:57:01;;;;;;;13.85;9.07;;;;;;;;;;4975732;28;20034;-84
2023/01/28 13:59:46;;;;;;;18.02;9.70;;;;;;;;;;4974881;28;20043;-85
2023/01/28 14:02:31;;;;;;;25.90;9.90;;;;;;;;;;4956356;28;20031;-82
2023/01/28 14:05:30;;;;;;;16.25;9.05;;;;;;;;;;4973364;28;20452;-85
2023/01/28 14:08:45;;;;;;;12.65;9.05;;;;;;;;;;4956198;28;20074;-86
2023/01/28 14:11:49;;;;;;;16.45;8.23;;;;;;;;;;4937785;28;20047;-85
2023/01/28 14:14:26;;;;;;;19.77;9.43;;;;;;;;;;4973636;28;20035;-87
2023/01/28 14:17:10;;;;;;;20.85;9.68;;;;;;;;;;4974130;28;20117;-86
2023/01/28 14:19:37;;;;;;;15.98;8.70;;;;;;;;;;4972563;28;20035;-85
2023/01/28 14:22:15;;;;;;;18.63;10.15;;;;;;;;;;4973481;28;20031;-87
2023/01/28 14:24:41;;;;;;;29.85;15.52;;;;;;;;;;4973308;28;20039;-87
2023/01/28 14:27:34;;;;;;;58.15;28.17;;;;;;;;;;4956342;28;20037;-86
2023/01/28 14:30:39;;;;;;;44.67;19.70;;;;;;;;;;4973398;28;20046;-80
2023/01/28 14:33:08;;;;;;;;;;;;;;;;;;4956193;28;20523;-85
2023/01/28 14:35:38;;;;;;;40.08;20.73;;;;;;;;;;4972421;28;19914;-87
2023/01/28 14:38:15;;;;;;;13.30;8.63;;;;;;;;;;4972277;28;20117;-84
2023/01/28 14:40:41;;;;;;;12.30;8.07;;;;;;;;;;4940374;28;20059;-86
2023/01/28 14:43:12;;;;;;;19.60;9.48;;;;;;;;;;4973804;28;20031;-86
2023/01/28 14:46:23;;;;;;;15.82;9.00;;;;;;;;;;4973576;28;20077;-84
2023/01/28 14:49:04;;;;;;;13.20;8.60;;;;;;;;;;4973834;28;20041;-82
2023/01/28 14:51:45;;;;;;;14.00;8.93;;;;;;;;;;4972153;28;20499;-84
2023/01/28 14:54:38;;;;;;;16.38;8.55;;;;;;;;;;4973419;28;20510;-83
2023/01/28 14:57:21;;;;;;;11.73;8.05;;;;;;;;;;4973655;28;20436;-82
2023/01/28 14:59:53;;;;;;;13.68;8.68;;;;;;;;;;4973067;28;20039;-83
2023/01/28 15:02:29;;;;;;;12.90;8.88;;;;;;;;;;4973785;28;20030;-84
2023/01/28 15:05:09;;;;;;;12.73;8.45;;;;;;;;;;4977095;28;20054;-85
2023/01/28 15:07:35;;;;;;;13.82;8.52;;;;;;;;;;4943979;28;20084;-85
2023/01/28 15:10:31;;;;;;;14.10;8.57;;;;;;;;;;4959618;28;20562;-85
2023/01/28 15:13:14;;;;;;;17.23;10.65;;;;;;;;;;4947141;28;20105;-83
2023/01/28 15:15:45;;;;;;;13.23;9.32;;;;;;;;;;4959662;28;20043;-82
2023/01/28 15:18:22;;;;;;;14.20;9.38;;;;;;;;;;4976732;28;20050;-84
2023/01/28 15:20:56;;;;;;;17.05;10.10;;;;;;;;;;4976876;28;20031;-84
2023/01/28 15:23:37;;;;;;;19.15;9.40;;;;;;;;;;4977558;28;20443;-84
2023/01/28 15:26:16;;;;;;;19.73;10.07;;;;;;;;;;4979361;28;20489;-83
2023/01/28 15:28:46;;;;;;;16.02;10.35;;;;;;;;;;4978484;28;20092;-85
2023/01/28 15:31:39;;;;;;;20.00;10.27;;;;;;;;;;4977785;28;20246;-86
2023/01/28 15:34:16;;;;;;;16.55;10.07;;;;;;;;;;4971012;28;20081;-85
2023/01/28 15:36:42;;;;;;;26.25;13.57;;;;;;;;;;4976466;28;20408;-83
2023/01/28 15:39:22;;;;;;;25.92;13.20;;;;;;;;;;4976472;28;20026;-85